createdAt,value
2022-12-08T00:01:26.573Z,28.02
2022-12-08T00:02:58.212Z,28.63
2022-12-08T00:04:29.858Z,30.62
2022-12-08T00:06:01.135Z,30.63
2022-12-08T00:07:32.460Z,28.66
2022-12-08T00:09:03.882Z,29.92
2022-12-08T00:10:48.464Z,24.34
2022-12-08T00:12:21.015Z,29.83
2022-12-08T00:13:52.296Z,28.81
2022-12-08T00:15:23.764Z,28.53
2022-12-08T00:16:55.395Z,29.76
2022-12-08T00:18:26.726Z,35.18
2022-12-08T00:19:58.047Z,33.22
2022-12-08T00:21:29.401Z,34.64
2022-12-08T00:23:01.020Z,27.40
2022-12-08T00:24:34.101Z,32.37
2022-12-08T00:26:05.552Z,39.60
2022-12-08T00:27:38.416Z,38.64
2022-12-08T00:29:14.489Z,37.46
2022-12-08T00:30:48.574Z,36.26
2022-12-08T00:32:20.043Z,43.90
2022-12-08T00:33:51.481Z,38.94
2022-12-08T00:35:22.706Z,55.61
2022-12-08T00:36:53.986Z,47.79
2022-12-08T00:38:25.714Z,47.50
2022-12-08T00:39:57.109Z,46.50
2022-12-08T00:41:28.635Z,43.12
2022-12-08T00:42:59.982Z,42.53
2022-12-08T00:44:31.387Z,41.47
2022-12-08T00:46:02.699Z,41.87
2022-12-08T00:47:34.109Z,46.05
2022-12-08T00:49:05.412Z,43.83
2022-12-08T00:50:37.924Z,41.52
2022-12-08T00:52:09.493Z,40.24
2022-12-08T00:53:40.942Z,43.58
2022-12-08T00:55:12.530Z,39.94
2022-12-08T00:56:43.952Z,38.70
2022-12-08T00:58:15.413Z,43.48
2022-12-08T00:59:47.060Z,41.00
2022-12-08T01:01:18.716Z,37.44
2022-12-08T01:02:50.413Z,39.11
2022-12-08T01:04:21.903Z,40.02
2022-12-08T01:05:53.200Z,42.33
2022-12-08T01:07:24.434Z,38.51
2022-12-08T01:08:56.102Z,36.26
2022-12-08T01:10:27.628Z,39.95
2022-12-08T01:11:59.236Z,27.65
2022-12-08T01:13:30.494Z,27.80
2022-12-08T01:15:02.990Z,35.22
2022-12-08T01:16:34.625Z,36.75
2022-12-08T01:18:05.995Z,38.27
2022-12-08T01:19:37.328Z,35.91
2022-12-08T01:21:08.873Z,34.14
2022-12-08T01:22:40.276Z,36.26
2022-12-08T01:24:11.514Z,32.96
2022-12-08T01:25:43.140Z,28.71
2022-12-08T01:27:14.700Z,29.76
2022-12-08T01:28:46.205Z,30.79
2022-12-08T01:30:17.545Z,32.49
2022-12-08T01:31:48.859Z,34.83
2022-12-08T01:33:20.390Z,30.40
2022-12-08T01:34:52.108Z,32.51
2022-12-08T01:36:23.763Z,34.36
2022-12-08T01:37:55.146Z,33.46
2022-12-08T01:39:26.437Z,33.74
2022-12-08T01:40:58.083Z,31.33
2022-12-08T01:42:29.299Z,31.36
2022-12-08T01:44:00.807Z,31.50
2022-12-08T01:45:32.119Z,31.89
2022-12-08T01:47:03.465Z,27.03
2022-12-08T01:48:34.823Z,32.95
2022-12-08T01:50:06.604Z,31.82
2022-12-08T01:51:38.572Z,31.32
2022-12-08T01:53:09.993Z,28.27
2022-12-08T01:54:41.567Z,32.94
2022-12-08T01:56:12.838Z,31.71
2022-12-08T01:57:44.324Z,31.73
2022-12-08T01:59:15.746Z,33.08
2022-12-08T02:00:48.578Z,30.92
2022-12-08T02:02:19.977Z,32.94
2022-12-08T02:03:51.516Z,30.45
2022-12-08T02:05:22.931Z,30.61
2022-12-08T02:06:54.363Z,30.48
2022-12-08T02:08:25.989Z,30.25
2022-12-08T02:09:57.494Z,29.55
2022-12-08T02:11:28.916Z,30.49
2022-12-08T02:13:00.375Z,28.98
2022-12-08T02:14:31.596Z,29.29
2022-12-08T02:16:03.018Z,29.89
2022-12-08T02:17:34.512Z,31.81
2022-12-08T02:19:29.217Z,31.25
2022-12-08T02:21:02.992Z,30.39
2022-12-08T02:22:34.354Z,33.52
2022-12-08T02:24:05.726Z,31.36
2022-12-08T02:25:37.180Z,29.82
2022-12-08T02:27:08.393Z,31.36
2022-12-08T02:28:39.653Z,29.69
2022-12-08T02:30:10.922Z,33.30
2022-12-08T02:31:42.263Z,35.22
2022-12-08T02:33:14.020Z,33.49
2022-12-08T02:34:46.205Z,32.87
2022-12-08T02:36:17.827Z,32.92
2022-12-08T02:37:49.471Z,31.64
2022-12-08T02:39:20.809Z,36.48
2022-12-08T02:40:52.408Z,31.66
2022-12-08T02:42:23.661Z,32.61
2022-12-08T02:43:55.226Z,29.64
2022-12-08T02:45:26.467Z,29.36
2022-12-08T02:46:57.868Z,31.90
2022-12-08T02:48:29.606Z,35.81
2022-12-08T02:50:01.133Z,31.95
2022-12-08T02:51:32.434Z,33.74
2022-12-08T02:54:35.662Z,28.61
2022-12-08T02:56:07.595Z,31.19
2022-12-08T02:57:39.116Z,38.60
2022-12-08T02:59:10.283Z,36.19
2022-12-08T03:00:41.947Z,34.27
2022-12-08T03:02:13.145Z,35.17
2022-12-08T03:03:44.768Z,37.80
2022-12-08T03:05:16.171Z,35.58
2022-12-08T03:06:47.378Z,34.39
2022-12-08T03:08:18.763Z,35.10
2022-12-08T03:09:50.161Z,32.33
2022-12-08T03:11:21.361Z,33.91
2022-12-08T03:12:52.641Z,34.69
2022-12-08T03:14:24.118Z,32.89
2022-12-08T03:16:04.292Z,33.94
2022-12-08T03:17:36.121Z,29.93
2022-12-08T03:19:07.967Z,26.62
2022-12-08T03:20:59.014Z,31.94
2022-12-08T03:22:30.856Z,32.68
2022-12-08T03:24:02.570Z,30.95
2022-12-08T03:25:34.023Z,30.65
2022-12-08T03:27:06.868Z,33.83
2022-12-08T03:28:38.310Z,34.40
2022-12-08T03:30:09.471Z,32.57
2022-12-08T03:31:41.064Z,27.74
2022-12-08T03:33:12.380Z,25.89
2022-12-08T03:34:43.740Z,31.34
2022-12-08T03:36:15.461Z,24.55
2022-12-08T03:37:46.721Z,30.11
2022-12-08T03:39:18.230Z,25.52
2022-12-08T03:40:49.523Z,33.74
2022-12-08T03:42:20.764Z,35.24
2022-12-08T03:43:52.212Z,35.87
2022-12-08T03:45:23.508Z,28.67
2022-12-08T03:46:55.046Z,33.84
2022-12-08T03:48:26.494Z,36.88
2022-12-08T03:49:57.905Z,32.33
2022-12-08T03:51:29.252Z,37.20
2022-12-08T03:53:00.449Z,36.21
2022-12-08T03:54:32.105Z,29.44
2022-12-08T03:56:03.548Z,31.46
2022-12-08T03:57:34.782Z,26.28
2022-12-08T03:59:06.054Z,31.99
2022-12-08T04:00:37.503Z,33.77
2022-12-08T04:02:08.890Z,30.45
2022-12-08T04:03:40.798Z,33.65
2022-12-08T04:05:12.078Z,32.44
2022-12-08T04:06:43.556Z,32.87
2022-12-08T04:08:15.060Z,28.37
2022-12-08T04:09:46.300Z,32.93
2022-12-08T04:11:17.700Z,34.61
2022-12-08T04:12:49.330Z,31.94
2022-12-08T04:14:20.690Z,33.15
2022-12-08T04:15:51.975Z,33.78
2022-12-08T04:17:23.414Z,32.42
2022-12-08T04:18:55.314Z,31.32
2022-12-08T04:20:26.636Z,27.87
2022-12-08T04:21:58.320Z,32.68
2022-12-08T04:23:29.887Z,32.93
2022-12-08T04:25:01.204Z,31.08
2022-12-08T04:26:32.564Z,30.97
2022-12-08T04:28:03.940Z,27.31
2022-12-08T04:29:35.495Z,31.18
2022-12-08T04:31:06.915Z,31.00
2022-12-08T04:32:41.637Z,28.89
2022-12-08T04:34:15.719Z,26.94
2022-12-08T04:35:47.111Z,30.64
2022-12-08T04:37:18.721Z,28.45
2022-12-08T04:38:50.539Z,23.39
2022-12-08T04:40:23.311Z,29.29
2022-12-08T04:41:54.939Z,24.43
2022-12-08T04:43:26.324Z,31.50
2022-12-08T04:44:57.669Z,28.42
2022-12-08T04:46:29.315Z,31.36
2022-12-08T04:48:46.420Z,31.22
2022-12-08T04:50:19.599Z,29.79
2022-12-08T04:51:50.942Z,33.36
2022-12-08T04:53:22.399Z,29.45
2022-12-08T04:54:53.584Z,25.04
2022-12-08T04:56:25.152Z,20.47
2022-12-08T04:57:56.502Z,21.15
2022-12-08T04:59:27.917Z,28.23
2022-12-08T05:00:59.494Z,25.66
2022-12-08T05:02:31.171Z,26.87
2022-12-08T05:04:02.688Z,20.70
2022-12-08T05:05:34.025Z,21.00
2022-12-08T05:07:05.401Z,26.58
2022-12-08T05:08:36.790Z,23.36
2022-12-08T05:10:08.240Z,24.64
2022-12-08T05:11:43.909Z,26.62
2022-12-08T05:13:18.273Z,23.42
2022-12-08T05:14:49.842Z,20.86
2022-12-08T05:16:21.076Z,23.80
2022-12-08T05:17:53.277Z,23.58
2022-12-08T05:19:24.474Z,21.46
2022-12-08T05:20:55.787Z,20.32
2022-12-08T05:22:27.436Z,21.59
2022-12-08T05:23:58.861Z,18.41
2022-12-08T05:25:30.594Z,21.44
2022-12-08T05:27:01.807Z,18.15
2022-12-08T05:28:41.233Z,17.55
2022-12-08T05:30:13.875Z,19.42
2022-12-08T05:31:45.310Z,17.24
2022-12-08T05:33:16.835Z,16.86
2022-12-08T05:35:14.415Z,15.75
2022-12-08T05:36:46.800Z,18.70
2022-12-08T05:38:18.635Z,18.34
2022-12-08T05:39:50.296Z,22.75
2022-12-08T05:41:21.668Z,22.03
2022-12-08T05:42:53.312Z,22.27
2022-12-08T05:44:25.656Z,21.57
2022-12-08T05:45:59.463Z,23.26
2022-12-08T05:47:35.810Z,21.54
2022-12-08T05:49:07.818Z,13.76
2022-12-08T05:50:39.818Z,17.60
2022-12-08T05:52:12.615Z,21.11
2022-12-08T05:53:44.206Z,18.76
2022-12-08T05:55:15.743Z,22.74
2022-12-08T05:56:47.689Z,23.24
2022-12-08T05:58:19.191Z,20.59
2022-12-08T05:59:51.320Z,21.41
2022-12-08T06:01:27.672Z,22.26
2022-12-08T06:03:09.759Z,23.48
2022-12-08T06:04:45.416Z,19.56
2022-12-08T06:06:16.810Z,26.38
2022-12-08T06:07:48.138Z,24.47
2022-12-08T06:09:19.497Z,26.19
2022-12-08T06:10:51.156Z,24.53
2022-12-08T06:12:22.526Z,25.04
2022-12-08T06:13:54.002Z,24.07
2022-12-08T06:15:40.440Z,22.46
2022-12-08T06:17:12.046Z,23.47
2022-12-08T06:18:52.169Z,27.91
2022-12-08T06:20:23.781Z,21.53
2022-12-08T06:21:55.250Z,24.24
2022-12-08T06:23:32.087Z,21.93
2022-12-08T06:25:07.185Z,22.37
2022-12-08T06:26:46.371Z,26.11
2022-12-08T06:28:17.864Z,24.64
2022-12-08T06:29:50.593Z,25.91
2022-12-08T06:31:23.456Z,28.27
2022-12-08T06:33:00.600Z,24.91
2022-12-08T06:34:39.483Z,26.20
2022-12-08T06:36:11.045Z,22.18
2022-12-08T06:37:42.600Z,22.95
2022-12-08T06:39:13.965Z,25.82
2022-12-08T06:40:45.342Z,25.42
2022-12-08T06:42:18.134Z,25.22
2022-12-08T06:43:49.881Z,23.61
2022-12-08T06:45:21.295Z,22.61
2022-12-08T06:46:53.104Z,26.26
2022-12-08T06:48:24.532Z,24.42
2022-12-08T06:50:01.833Z,24.43
2022-12-08T06:51:33.790Z,23.70
2022-12-08T06:53:10.647Z,24.60
2022-12-08T06:54:42.253Z,22.62
2022-12-08T06:56:14.522Z,20.68
2022-12-08T06:57:46.063Z,22.25
2022-12-08T06:59:17.608Z,22.70
2022-12-08T07:03:03.174Z,16.82
2022-12-08T07:04:34.847Z,18.16
2022-12-08T07:06:06.207Z,15.27
2022-12-08T07:07:37.558Z,17.67
2022-12-08T07:09:10.001Z,18.09
2022-12-08T07:10:41.607Z,18.33
2022-12-08T07:12:12.826Z,16.69
2022-12-08T07:13:44.063Z,18.77
2022-12-08T07:15:15.688Z,18.10
2022-12-08T07:16:47.251Z,19.73
2022-12-08T07:18:19.033Z,23.29
2022-12-08T07:19:50.544Z,19.94
2022-12-08T07:21:22.309Z,22.79
2022-12-08T07:22:53.849Z,23.67
2022-12-08T07:24:25.335Z,22.11
2022-12-08T07:25:56.651Z,24.12
2022-12-08T07:27:28.055Z,15.43
2022-12-08T07:28:59.668Z,17.69
2022-12-08T07:30:30.995Z,17.79
2022-12-08T07:32:02.626Z,18.97
2022-12-08T07:33:33.950Z,19.43
2022-12-08T07:35:05.227Z,20.10
2022-12-08T07:36:36.642Z,19.91
2022-12-08T07:38:08.143Z,15.99
2022-12-08T07:39:39.762Z,17.75
2022-12-08T07:41:11.145Z,20.02
2022-12-08T07:42:42.583Z,19.47
2022-12-08T07:44:14.009Z,21.70
2022-12-08T07:45:45.403Z,21.48
2022-12-08T07:47:16.973Z,21.84
2022-12-08T07:48:48.227Z,21.57
2022-12-08T07:50:19.729Z,17.24
2022-12-08T07:51:50.933Z,18.12
2022-12-08T07:53:22.229Z,18.99
2022-12-08T07:54:53.855Z,21.42
2022-12-08T07:56:25.131Z,22.58
2022-12-08T07:58:01.583Z,19.27
2022-12-08T07:59:33.994Z,18.84
2022-12-08T08:01:05.552Z,19.59
2022-12-08T08:02:37.291Z,22.06
2022-12-08T08:04:08.694Z,20.52
2022-12-08T08:05:40.149Z,19.59
2022-12-08T08:07:12.754Z,21.56
2022-12-08T08:08:44.263Z,22.73
2022-12-08T08:10:20.520Z,19.75
2022-12-08T08:12:22.223Z,17.26
2022-12-08T08:14:01.485Z,22.76
2022-12-08T08:15:32.993Z,22.96
2022-12-08T08:17:04.680Z,20.74
2022-12-08T08:18:36.111Z,23.29
2022-12-08T08:20:07.652Z,20.16
2022-12-08T08:21:45.907Z,23.11
2022-12-08T08:23:17.865Z,20.31
2022-12-08T08:24:49.189Z,20.33
2022-12-08T08:26:20.427Z,18.09
2022-12-08T08:27:51.909Z,20.54
2022-12-08T08:29:23.417Z,18.69
2022-12-08T08:30:55.076Z,21.17
2022-12-08T08:32:26.577Z,20.67
2022-12-08T08:33:58.102Z,18.34
2022-12-08T08:35:29.394Z,19.79
2022-12-08T08:37:00.940Z,23.48
2022-12-08T08:38:32.623Z,18.45
2022-12-08T08:40:04.288Z,18.18
2022-12-08T08:41:35.794Z,15.55
2022-12-08T08:43:07.161Z,20.17
2022-12-08T08:44:38.607Z,22.14
2022-12-08T08:46:09.924Z,14.46
2022-12-08T08:47:41.358Z,14.20
2022-12-08T08:49:13.347Z,19.16
2022-12-08T08:50:44.766Z,21.14
2022-12-08T08:52:16.390Z,23.93
2022-12-08T08:53:48.035Z,22.00
2022-12-08T08:55:19.350Z,21.83
2022-12-08T08:56:51.002Z,15.79
2022-12-08T08:58:22.594Z,14.10
2022-12-08T08:59:55.156Z,13.05
2022-12-08T09:01:28.264Z,14.41
2022-12-08T09:02:59.999Z,14.39
2022-12-08T09:04:31.778Z,13.38
2022-12-08T09:06:03.593Z,16.60
2022-12-08T09:07:35.250Z,18.33
2022-12-08T09:09:06.513Z,17.08
2022-12-08T09:10:37.890Z,18.10
2022-12-08T09:12:09.191Z,20.41
2022-12-08T09:13:40.622Z,17.57
2022-12-08T09:15:11.863Z,17.91
2022-12-08T09:16:43.666Z,16.62
2022-12-08T09:18:15.149Z,19.34
2022-12-08T09:19:47.554Z,19.36
2022-12-08T09:21:19.113Z,18.92
2022-12-08T09:22:50.483Z,19.28
2022-12-08T09:24:21.785Z,18.13
2022-12-08T09:25:53.437Z,16.27
2022-12-08T09:27:24.902Z,17.26
2022-12-08T09:28:56.290Z,16.62
2022-12-08T09:30:27.522Z,16.33
2022-12-08T09:31:58.981Z,20.42
2022-12-08T09:33:32.657Z,18.44
2022-12-08T09:35:04.149Z,18.04
2022-12-08T09:36:35.832Z,18.30
2022-12-08T09:38:07.444Z,15.36
2022-12-08T09:39:38.789Z,15.35
2022-12-08T09:41:10.267Z,12.30
2022-12-08T09:42:41.713Z,16.03
2022-12-08T09:44:13.176Z,15.92
2022-12-08T09:45:44.687Z,17.21
2022-12-08T09:47:17.184Z,15.16
2022-12-08T09:48:48.660Z,14.86
2022-12-08T09:50:19.862Z,15.73
2022-12-08T09:51:51.105Z,14.17
2022-12-08T09:53:22.705Z,14.94
2022-12-08T09:54:54.280Z,14.54
2022-12-08T09:56:25.854Z,15.14
2022-12-08T09:57:57.253Z,10.45
2022-12-08T09:59:28.670Z,14.95
2022-12-08T10:00:59.977Z,15.23
2022-12-08T10:02:31.713Z,15.46
2022-12-08T10:04:03.207Z,17.71
2022-12-08T10:05:34.530Z,17.56
2022-12-08T10:07:06.942Z,15.05
2022-12-08T10:08:38.570Z,12.90
2022-12-08T10:10:10.163Z,15.82
2022-12-08T10:11:41.511Z,16.47
2022-12-08T10:13:12.796Z,15.92
2022-12-08T10:14:49.044Z,16.85
2022-12-08T10:16:26.559Z,16.95
2022-12-08T10:18:00.804Z,12.22
2022-12-08T10:19:32.084Z,11.46
2022-12-08T10:21:03.403Z,14.06
2022-12-08T10:22:38.647Z,13.15
2022-12-08T10:24:13.095Z,14.09
2022-12-08T10:25:44.717Z,15.80
2022-12-08T10:27:16.031Z,16.33
2022-12-08T10:28:47.281Z,16.26
2022-12-08T10:30:18.672Z,15.27
2022-12-08T10:31:50.432Z,12.56
2022-12-08T10:33:21.909Z,14.72
2022-12-08T10:34:56.416Z,17.75
2022-12-08T10:36:28.040Z,17.67
2022-12-08T10:37:59.876Z,18.82
2022-12-08T10:39:31.274Z,16.64
2022-12-08T10:41:02.698Z,16.40
2022-12-08T10:42:34.008Z,19.31
2022-12-08T10:44:05.713Z,18.92
2022-12-08T10:45:36.974Z,19.71
2022-12-08T10:47:08.221Z,20.09
2022-12-08T10:48:39.740Z,25.17
2022-12-08T10:50:11.034Z,18.21
2022-12-08T10:51:42.884Z,18.17
2022-12-08T10:53:14.213Z,19.02
2022-12-08T10:54:45.412Z,17.17
2022-12-08T10:56:16.620Z,16.38
2022-12-08T10:57:48.044Z,16.60
2022-12-08T10:59:19.439Z,17.88
2022-12-08T11:00:51.090Z,19.33
2022-12-08T11:02:22.532Z,19.26
2022-12-08T11:03:53.930Z,21.00
2022-12-08T11:05:30.174Z,21.81
2022-12-08T11:07:39.175Z,19.60
2022-12-08T11:09:13.131Z,20.02
2022-12-08T11:10:44.584Z,18.82
2022-12-08T11:12:15.920Z,17.58
2022-12-08T11:13:47.259Z,20.20
2022-12-08T11:15:18.596Z,19.62
2022-12-08T11:16:50.188Z,20.41
2022-12-08T11:18:22.021Z,21.20
2022-12-08T11:19:53.357Z,19.76
2022-12-08T11:21:24.650Z,17.32
2022-12-08T11:22:56.030Z,18.18
2022-12-08T11:24:27.380Z,17.33
2022-12-08T11:25:58.819Z,18.06
2022-12-08T11:27:35.080Z,17.95
2022-12-08T11:29:06.438Z,17.95
2022-12-08T11:30:38.142Z,19.46
2022-12-08T11:32:10.701Z,19.69
2022-12-08T11:33:43.100Z,18.16
2022-12-08T11:35:14.821Z,15.67
2022-12-08T11:36:46.694Z,18.24
2022-12-08T11:38:21.277Z,15.11
2022-12-08T11:39:53.634Z,14.45
2022-12-08T11:41:24.941Z,15.63
2022-12-08T11:42:56.308Z,13.90
2022-12-08T11:44:27.612Z,15.57
2022-12-08T11:45:59.111Z,12.56
2022-12-08T11:47:30.446Z,11.42
2022-12-08T11:49:06.194Z,15.92
2022-12-08T11:50:38.263Z,17.30
2022-12-08T11:52:09.815Z,16.68
2022-12-08T11:53:41.392Z,14.82
2022-12-08T11:55:12.564Z,16.80
2022-12-08T11:56:43.904Z,16.98
2022-12-08T11:58:15.189Z,16.51
2022-12-08T11:59:46.464Z,15.71
2022-12-08T12:01:22.705Z,16.41
2022-12-08T12:02:54.203Z,17.56
2022-12-08T12:04:25.611Z,17.14
2022-12-08T12:06:12.988Z,18.66
2022-12-08T12:07:50.015Z,18.09
2022-12-08T12:09:21.552Z,18.78
2022-12-08T12:10:53.823Z,21.28
2022-12-08T12:12:25.131Z,21.12
2022-12-08T12:13:56.504Z,20.24
2022-12-08T12:15:27.958Z,19.84
2022-12-08T12:16:59.339Z,18.24
2022-12-08T12:18:36.596Z,20.33
2022-12-08T12:20:08.152Z,19.70
2022-12-08T12:21:39.663Z,21.40
2022-12-08T12:23:11.100Z,20.11
2022-12-08T12:24:42.497Z,23.34
2022-12-08T12:26:13.822Z,20.30
2022-12-08T12:27:45.184Z,21.27
2022-12-08T12:29:16.703Z,20.75
2022-12-08T12:30:48.670Z,20.05
2022-12-08T12:32:20.350Z,20.62
2022-12-08T12:33:51.782Z,19.05
2022-12-08T12:35:27.170Z,19.56
2022-12-08T12:36:59.178Z,20.85
2022-12-08T12:38:30.415Z,20.39
2022-12-08T12:40:01.999Z,19.85
2022-12-08T12:41:33.589Z,19.74
2022-12-08T12:43:04.848Z,21.91
2022-12-08T12:44:36.128Z,19.53
2022-12-08T12:46:07.505Z,19.41
2022-12-08T12:47:38.836Z,19.15
2022-12-08T12:49:10.336Z,17.19
2022-12-08T12:50:41.597Z,17.30
2022-12-08T12:52:12.865Z,18.36
2022-12-08T12:53:44.533Z,19.72
2022-12-08T12:55:15.907Z,19.47
2022-12-08T12:56:47.144Z,20.74
2022-12-08T12:58:18.498Z,18.09
2022-12-08T12:59:54.881Z,19.39
2022-12-08T13:01:27.962Z,18.97
2022-12-08T13:03:04.381Z,18.82
2022-12-08T13:04:45.632Z,17.73
2022-12-08T13:06:16.941Z,18.06
2022-12-08T13:08:08.233Z,19.30
2022-12-08T13:09:55.641Z,19.46
2022-12-08T13:11:27.040Z,18.72
2022-12-08T13:12:58.343Z,19.73
2022-12-08T13:14:29.662Z,19.49
2022-12-08T13:16:07.598Z,17.62
2022-12-08T13:17:44.206Z,16.70
2022-12-08T13:19:40.624Z,17.40
2022-12-08T13:21:21.909Z,17.88
2022-12-08T13:22:53.505Z,18.10
2022-12-08T13:24:25.025Z,19.14
2022-12-08T13:25:56.505Z,19.91
2022-12-08T13:28:03.161Z,19.40
2022-12-08T13:29:46.514Z,19.67
2022-12-08T13:31:19.153Z,20.34
2022-12-08T13:33:17.128Z,23.65
2022-12-08T13:34:48.922Z,22.46
2022-12-08T13:36:20.309Z,22.24
2022-12-08T13:37:55.183Z,22.95
2022-12-08T13:39:46.867Z,21.50
2022-12-08T13:41:21.046Z,22.16
2022-12-08T13:43:09.237Z,24.29
2022-12-08T13:47:31.650Z,24.28
2022-12-08T13:56:37.461Z,21.82
2022-12-08T13:58:23.543Z,22.92
2022-12-08T13:59:55.010Z,22.79
2022-12-08T14:01:27.696Z,21.60
2022-12-08T14:02:59.136Z,22.74
2022-12-08T14:04:48.005Z,22.92
2022-12-08T14:06:47.317Z,22.42
2022-12-08T14:09:01.032Z,21.44
2022-12-08T14:10:33.858Z,21.78
2022-12-08T14:12:42.381Z,20.78
2022-12-08T14:14:14.450Z,22.90
2022-12-08T14:15:51.139Z,26.38
2022-12-08T14:17:27.892Z,23.97
2022-12-08T14:19:19.184Z,22.38
2022-12-08T14:21:19.389Z,23.44
2022-12-08T14:22:51.862Z,27.07
2022-12-08T14:24:23.051Z,24.28
2022-12-08T14:28:05.228Z,29.11
2022-12-08T14:29:36.644Z,27.65
2022-12-08T14:31:19.313Z,27.44
2022-12-08T14:33:06.826Z,24.70
2022-12-08T14:34:38.209Z,26.86
2022-12-08T14:36:09.730Z,24.50
2022-12-08T14:37:41.009Z,26.00
2022-12-08T14:39:12.569Z,26.45
2022-12-08T14:40:44.199Z,26.27
2022-12-08T14:42:26.133Z,26.41
2022-12-08T14:43:57.424Z,27.31
2022-12-08T14:45:28.949Z,25.58
2022-12-08T14:47:05.352Z,27.25
2022-12-08T14:48:37.270Z,28.93
2022-12-08T14:50:08.610Z,26.94
2022-12-08T14:51:40.196Z,25.58
2022-12-08T14:53:12.033Z,26.60
2022-12-08T14:54:43.670Z,28.82
2022-12-08T14:58:17.262Z,27.42
2022-12-08T14:59:48.589Z,28.55
2022-12-08T15:01:20.302Z,25.28
2022-12-08T15:02:51.519Z,25.83
2022-12-08T15:04:22.702Z,26.52
2022-12-08T15:05:54.011Z,26.25
2022-12-08T15:07:25.346Z,26.80
2022-12-08T15:08:56.541Z,27.29
2022-12-08T15:10:27.729Z,27.15
2022-12-08T15:11:59.027Z,26.78
2022-12-08T15:13:30.243Z,24.93
2022-12-08T15:15:01.450Z,24.68
2022-12-08T15:16:32.700Z,26.51
2022-12-08T15:18:03.967Z,30.07
2022-12-08T15:19:35.353Z,29.36
2022-12-08T15:21:06.742Z,27.01
2022-12-08T15:22:37.938Z,27.32
2022-12-08T15:24:14.137Z,27.79
2022-12-08T15:25:45.770Z,29.02
2022-12-08T15:27:17.028Z,27.57
2022-12-08T15:28:48.260Z,29.41
2022-12-08T15:30:19.675Z,28.98
2022-12-08T15:31:51.106Z,31.46
2022-12-08T15:33:22.418Z,29.47
2022-12-08T15:34:53.727Z,29.20
2022-12-08T15:36:24.914Z,27.47
2022-12-08T15:38:01.255Z,28.82
2022-12-08T15:39:37.745Z,27.22
2022-12-08T15:41:14.659Z,28.38
2022-12-08T15:42:46.464Z,26.26
2022-12-08T15:44:17.970Z,28.44
2022-12-08T15:45:58.494Z,26.38
2022-12-08T15:47:30.775Z,27.06
2022-12-08T15:49:02.140Z,28.53
2022-12-08T15:50:33.438Z,26.35
2022-12-08T15:52:11.509Z,27.37
2022-12-08T15:53:43.460Z,25.24
2022-12-08T15:55:14.735Z,27.92
2022-12-08T15:57:18.409Z,27.60
2022-12-08T15:58:54.718Z,27.82
2022-12-08T16:00:51.068Z,29.45
2022-12-08T16:02:25.258Z,28.01
2022-12-08T16:06:44.297Z,28.47
2022-12-08T16:08:49.403Z,29.48
2022-12-08T16:10:35.432Z,28.49
2022-12-08T16:12:17.183Z,29.92
2022-12-08T16:13:57.141Z,30.13
2022-12-08T16:15:53.593Z,28.83
2022-12-08T16:17:30.466Z,29.60
2022-12-08T16:19:01.718Z,33.10
2022-12-08T16:21:05.154Z,29.87
2022-12-08T16:22:59.563Z,29.61
2022-12-08T16:24:39.203Z,31.41
2022-12-08T16:27:22.136Z,29.02
2022-12-08T16:29:06.774Z,30.64
2022-12-08T16:30:38.429Z,28.83
2022-12-08T16:32:09.980Z,30.63
2022-12-08T16:33:41.398Z,31.04
2022-12-08T16:35:12.988Z,31.71
2022-12-08T16:36:44.230Z,31.27
2022-12-08T16:38:16.176Z,30.53
2022-12-08T16:39:47.730Z,31.15
2022-12-08T16:41:20.254Z,30.99
2022-12-08T16:42:51.612Z,34.48
2022-12-08T16:44:23.278Z,35.66
2022-12-08T16:45:54.665Z,37.39
2022-12-08T16:47:25.946Z,39.46
2022-12-08T16:48:57.131Z,35.40
2022-12-08T16:50:28.743Z,32.69
2022-12-08T16:52:00.108Z,34.40
2022-12-08T16:53:31.604Z,34.01
2022-12-08T16:55:03.178Z,33.87
2022-12-08T16:56:34.699Z,32.59
2022-12-08T16:58:06.128Z,33.97
2022-12-08T16:59:37.799Z,35.30
2022-12-08T17:01:10.103Z,34.47
2022-12-08T17:02:42.926Z,38.21
2022-12-08T17:04:31.721Z,40.38
2022-12-08T17:06:03.454Z,39.31
2022-12-08T17:07:34.902Z,38.01
2022-12-08T17:09:06.510Z,32.64
2022-12-08T17:10:38.548Z,33.01
2022-12-08T17:12:10.168Z,31.50
2022-12-08T17:13:41.998Z,31.04
2022-12-08T17:15:14.244Z,35.37
2022-12-08T17:17:05.635Z,33.02
2022-12-08T17:18:36.978Z,33.98
2022-12-08T17:20:08.731Z,32.15
2022-12-08T17:21:46.584Z,34.40
2022-12-08T17:23:17.732Z,35.11
2022-12-08T17:24:49.054Z,33.42
2022-12-08T17:26:20.283Z,33.42
2022-12-08T17:27:51.801Z,36.20
2022-12-08T17:29:23.030Z,31.91
2022-12-08T17:30:54.269Z,31.30
2022-12-08T17:32:25.611Z,33.29
2022-12-08T17:33:57.205Z,32.63
2022-12-08T17:35:28.662Z,31.33
2022-12-08T17:37:01.375Z,32.02
2022-12-08T17:38:32.781Z,34.54
2022-12-08T17:40:14.397Z,34.18
2022-12-08T17:41:55.937Z,34.47
2022-12-08T17:43:27.358Z,37.24
2022-12-08T17:44:58.564Z,37.37
2022-12-08T17:46:29.854Z,37.95
2022-12-08T17:48:01.418Z,35.99
2022-12-08T17:49:32.607Z,36.07
2022-12-08T17:51:11.337Z,38.40
2022-12-08T17:52:43.660Z,36.40
2022-12-08T17:54:15.283Z,35.96
2022-12-08T17:55:47.216Z,35.32
2022-12-08T17:57:18.616Z,33.10
2022-12-08T17:58:54.536Z,38.67
2022-12-08T18:00:26.145Z,35.82
2022-12-08T18:01:57.771Z,37.72
2022-12-08T18:03:29.119Z,36.54
2022-12-08T18:05:00.395Z,39.34
2022-12-08T18:06:32.135Z,38.56
2022-12-08T18:08:03.666Z,39.07
2022-12-08T18:09:35.123Z,41.47
2022-12-08T18:11:06.565Z,39.02
2022-12-08T18:13:02.238Z,38.93
2022-12-08T18:14:33.572Z,37.01
2022-12-08T18:16:04.752Z,35.28
2022-12-08T18:17:35.983Z,38.88
2022-12-08T18:19:07.399Z,35.93
2022-12-08T18:20:38.735Z,41.37
2022-12-08T18:22:18.820Z,38.01
2022-12-08T18:23:54.798Z,36.15
2022-12-08T18:25:46.085Z,35.08
2022-12-08T18:27:30.330Z,34.86
2022-12-08T18:29:01.872Z,35.07
2022-12-08T18:31:13.109Z,41.39
2022-12-08T18:32:45.290Z,40.63
2022-12-08T18:34:49.933Z,38.60
2022-12-08T18:36:34.906Z,41.67
2022-12-08T18:38:20.888Z,38.95
2022-12-08T18:40:12.159Z,40.63
2022-12-08T18:42:03.055Z,39.30
2022-12-08T18:45:36.166Z,41.06
2022-12-08T18:47:14.150Z,41.84
2022-12-08T18:48:50.608Z,41.28
2022-12-08T18:50:26.917Z,40.97
2022-12-08T18:52:03.284Z,43.12
2022-12-08T18:53:34.664Z,43.37
2022-12-08T18:55:07.089Z,44.01
2022-12-08T18:56:49.183Z,42.61
2022-12-08T18:58:20.366Z,44.35
2022-12-08T18:59:51.963Z,42.67
2022-12-08T19:01:24.106Z,46.67
2022-12-08T19:02:55.897Z,42.40
2022-12-08T19:04:47.265Z,42.38
2022-12-08T19:06:19.937Z,42.28
2022-12-08T19:08:01.716Z,43.58
2022-12-08T19:10:09.356Z,44.36
2022-12-08T19:13:53.583Z,41.76
2022-12-08T19:15:25.331Z,40.25
2022-12-08T19:16:58.122Z,40.06
2022-12-08T19:19:11.806Z,43.13
2022-12-08T19:20:43.043Z,40.44
2022-12-08T19:22:46.952Z,42.69
2022-12-08T19:24:21.296Z,43.75
2022-12-08T19:26:12.513Z,41.86
2022-12-08T19:27:44.332Z,45.96
2022-12-08T19:29:16.085Z,45.82
2022-12-08T19:30:47.699Z,46.16
2022-12-08T19:32:19.071Z,44.55
2022-12-08T19:33:50.401Z,44.65
2022-12-08T19:35:21.816Z,45.30
2022-12-08T19:37:18.588Z,45.39
2022-12-08T19:38:50.133Z,44.85
2022-12-08T19:40:21.571Z,45.85
2022-12-08T19:41:52.880Z,44.07
2022-12-08T19:43:24.195Z,43.58
2022-12-08T19:44:55.407Z,43.07
2022-12-08T19:46:26.892Z,41.35
2022-12-08T19:47:58.610Z,45.41
2022-12-08T19:49:29.992Z,45.44
2022-12-08T19:51:01.397Z,46.71
2022-12-08T19:52:32.741Z,42.50
2022-12-08T19:54:04.081Z,43.87
2022-12-08T19:55:35.409Z,42.94
2022-12-08T19:57:06.799Z,43.25
2022-12-08T19:58:38.055Z,44.76
2022-12-08T20:00:09.717Z,46.38
2022-12-08T20:01:41.377Z,49.75
2022-12-08T20:03:13.112Z,52.77
2022-12-08T20:04:44.340Z,47.38
2022-12-08T20:06:15.528Z,51.45
2022-12-08T20:07:46.850Z,51.16
2022-12-08T20:10:11.598Z,47.18
2022-12-08T20:11:52.861Z,44.81
2022-12-08T20:13:37.232Z,44.29
2022-12-08T20:15:09.444Z,45.54
2022-12-08T20:16:54.674Z,42.41
2022-12-08T20:18:26.475Z,40.09
2022-12-08T20:20:06.995Z,42.42
2022-12-08T20:21:51.576Z,43.49
2022-12-08T20:23:23.413Z,41.11
2022-12-08T20:24:59.579Z,42.69
2022-12-08T20:26:48.300Z,41.83
2022-12-08T20:30:38.337Z,41.86
2022-12-08T20:32:10.569Z,46.67
2022-12-08T20:33:47.014Z,43.64
2022-12-08T20:35:18.274Z,45.81
2022-12-08T20:37:12.994Z,43.56
2022-12-08T20:38:50.035Z,45.05